Time,TemperatureF,DewpointF,PressureIn,WindDirection,WindDirectionDegrees,WindSpeedMPH,WindSpeedGustMPH,Humidity,HourlyPrecipIn,Conditions,Clouds,dailyrainin,SoftwareType,DateUTC
2013-01-19 00:04:00,27.0,21.0,-100.00,SE,137,7.0,11.0,78,0.00,,,0.00,,2013-01-19 05:04:00,
2013-01-19 00:13:00,27.0,21.0,-100.00,SE,137,7.0,11.0,78,0.00,,,0.00,,2013-01-19 05:13:00,
2013-01-19 00:23:00,27.0,21.0,-100.00,SSE,150,8.0,12.0,79,0.00,,,0.00,,2013-01-19 05:23:00,
2013-01-19 00:33:00,27.0,21.0,-100.00,SSE,150,8.0,12.0,79,0.00,,,0.00,,2013-01-19 05:33:00,
2013-01-19 00:43:00,27.0,22.0,-100.00,SSE,147,7.0,10.0,81,0.00,,,0.00,,2013-01-19 05:43:00,
2013-01-19 00:53:00,27.0,22.0,-100.00,SSE,147,7.0,10.0,81,0.00,,,0.00,,2013-01-19 05:53:00,
2013-01-19 01:03:00,27.0,22.0,-100.00,SE,145,7.0,9.0,82,0.00,,,0.00,,2013-01-19 06:03:00,
2013-01-19 01:12:00,27.0,22.0,-100.00,SE,145,7.0,9.0,82,0.00,,,0.00,,2013-01-19 06:12:00,
2013-01-19 01:23:00,27.0,23.0,-100.00,SE,144,6.0,8.0,85,0.00,,,0.00,,2013-01-19 06:23:00,
2013-01-19 01:33:00,27.0,23.0,-100.00,SE,144,6.0,8.0,85,0.00,,,0.00,,2013-01-19 06:33:00,
2013-01-19 01:43:00,27.0,23.0,-100.00,SE,145,8.0,10.0,84,0.00,,,0.00,,2013-01-19 06:43:00,
2013-01-19 01:53:00,27.0,23.0,-100.00,SE,145,8.0,10.0,84,0.00,,,0.00,,2013-01-19 06:53:00,
2013-01-19 02:02:00,27.0,23.0,-100.00,SE,143,8.0,10.0,85,0.00,,,0.00,,2013-01-19 07:02:00,
2013-01-19 02:12:00,27.0,23.0,-100.00,SE,143,8.0,10.0,85,0.00,,,0.00,,2013-01-19 07:12:00,
2013-01-19 02:23:00,26.0,23.0,-100.00,SSE,147,8.0,11.0,87,0.00,,,0.00,,2013-01-19 07:23:00,
2013-01-19 02:33:00,26.0,23.0,-100.00,SSE,147,8.0,11.0,87,0.00,,,0.00,,2013-01-19 07:33:00,
2013-01-19 02:43:00,26.0,23.0,-100.00,SE,141,7.0,10.0,88,0.00,,,0.00,,2013-01-19 07:43:00,
2013-01-19 02:53:00,26.0,23.0,-100.00,SE,141,7.0,10.0,88,0.00,,,0.00,,2013-01-19 07:53:00,
2013-01-19 03:02:00,26.0,23.0,-100.00,SE,134,8.0,11.0,88,0.00,,,0.00,,2013-01-19 08:02:00,
2013-01-19 03:12:00,26.0,23.0,-100.00,SE,134,8.0,11.0,88,0.00,,,0.00,,2013-01-19 08:12:00,
2013-01-19 03:22:00,26.0,23.0,-100.00,SSE,147,9.0,11.0,89,0.00,,,0.00,,2013-01-19 08:22:00,
2013-01-19 03:33:00,26.0,23.0,-100.00,SSE,147,9.0,11.0,89,0.00,,,0.00,,2013-01-19 08:33:00,
2013-01-19 03:43:00,26.0,23.0,-100.00,SSE,152,8.0,11.0,91,0.00,,,0.00,,2013-01-19 08:43:00,
2013-01-19 03:53:00,26.0,23.0,-100.00,SSE,152,8.0,11.0,91,0.00,,,0.00,,2013-01-19 08:53:00,
2013-01-19 04:02:00,26.0,23.0,-100.00,SSE,152,8.0,11.0,91,0.00,,,0.00,,2013-01-19 09:02:00,
2013-01-19 04:23:00,25.0,23.0,-100.00,SSE,147,9.0,11.0,91,0.00,,,0.00,,2013-01-19 09:23:00,
2013-01-19 04:33:00,25.0,23.0,-100.00,SSE,147,9.0,11.0,91,0.00,,,0.00,,2013-01-19 09:33:00,
2013-01-19 04:43:00,26.0,23.0,-100.00,SE,138,9.0,12.0,88,0.00,,,0.00,,2013-01-19 09:43:00,
2013-01-19 04:53:00,26.0,23.0,-100.00,SE,138,9.0,12.0,88,0.00,,,0.00,,2013-01-19 09:53:00,
2013-01-19 05:02:00,25.0,22.0,-100.00,SSE,150,9.0,12.0,91,0.00,,,0.00,,2013-01-19 10:02:00,
2013-01-19 05:12:00,25.0,22.0,-100.00,SSE,150,9.0,12.0,91,0.00,,,0.00,,2013-01-19 10:12:00,
2013-01-19 05:23:00,25.0,23.0,-100.00,SSE,148,7.0,9.0,91,0.00,,,0.00,,2013-01-19 10:23:00,
2013-01-19 05:33:00,26.0,23.0,-100.00,SE,136,8.0,10.0,87,0.00,,,0.00,,2013-01-19 10:33:00,
2013-01-19 05:43:00,26.0,23.0,-100.00,SE,136,8.0,10.0,87,0.00,,,0.00,,2013-01-19 10:43:00,
2013-01-19 05:53:00,26.0,23.0,-100.00,ESE,123,7.0,11.0,87,0.00,,,0.00,,2013-01-19 10:53:00,
2013-01-19 06:03:00,26.0,23.0,-100.00,ESE,123,7.0,11.0,87,0.00,,,0.00,,2013-01-19 11:03:00,
2013-01-19 06:12:00,26.0,23.0,-100.00,ESE,123,7.0,11.0,87,0.00,,,0.00,,2013-01-19 11:12:00,
2013-01-19 06:27:00,26.0,22.0,-100.00,SE,141,10.0,12.0,87,0.00,,,0.00,,2013-01-19 11:27:00,
2013-01-19 07:48:00,25.0,22.0,-100.00,SE,143,6.0,9.0,86,0.00,,,0.00,,2013-01-19 12:48:00,
2013-01-19 08:03:00,24.0,22.0,-100.00,SSE,150,6.0,7.0,89,0.00,,,0.00,,2013-01-19 13:03:00,
2013-01-19 08:13:00,24.0,22.0,-100.00,SSE,150,6.0,7.0,89,0.00,,,0.00,,2013-01-19 13:13:00,
2013-01-19 08:23:00,25.0,22.0,-100.00,SE,143,6.0,8.0,86,0.00,,,0.00,,2013-01-19 13:23:00,
2013-01-19 08:34:00,25.0,22.0,-100.00,SE,143,6.0,8.0,86,0.00,,,0.00,,2013-01-19 13:34:00,
2013-01-19 08:43:00,27.0,22.0,-100.00,SSE,147,9.0,12.0,80,0.00,,,0.00,,2013-01-19 13:43:00,
2013-01-19 08:54:00,28.0,22.0,-100.00,SSE,151,9.0,13.0,78,0.00,,,0.00,,2013-01-19 13:54:00,
2013-01-19 09:03:00,28.0,22.0,-100.00,SSE,151,9.0,13.0,78,0.00,,,0.00,,2013-01-19 14:03:00,
2013-01-19 09:13:00,28.0,22.0,-100.00,SSE,151,9.0,13.0,78,0.00,,,0.00,,2013-01-19 14:13:00,
2013-01-19 09:23:00,29.0,22.0,-100.00,SSE,157,9.0,12.0,74,0.00,,,0.00,,2013-01-19 14:23:00,
2013-01-19 09:34:00,29.0,22.0,-100.00,SSE,157,9.0,12.0,74,0.00,,,0.00,,2013-01-19 14:34:00,
2013-01-19 09:43:00,31.0,22.0,-100.00,SSE,148,11.0,13.0,72,0.00,,,0.00,,2013-01-19 14:43:00,
2013-01-19 09:53:00,31.0,22.0,-100.00,SSE,148,11.0,13.0,72,0.00,,,0.00,,2013-01-19 14:53:00,
2013-01-19 10:03:00,32.0,22.0,-100.00,SE,140,10.0,13.0,67,0.00,,,0.00,,2013-01-19 15:03:00,
2013-01-19 10:13:00,32.0,22.0,-100.00,SE,140,10.0,13.0,67,0.00,,,0.00,,2013-01-19 15:13:00,
2013-01-19 10:23:00,34.0,23.0,-100.00,SSE,152,10.0,13.0,64,0.00,,,0.00,,2013-01-19 15:23:00,
2013-01-19 10:33:00,34.0,23.0,-100.00,SSE,152,10.0,13.0,64,0.00,,,0.00,,2013-01-19 15:33:00,
2013-01-19 10:43:00,35.0,24.0,-100.00,SE,138,10.0,14.0,64,0.00,,,0.00,,2013-01-19 15:43:00,
2013-01-19 10:53:00,35.0,24.0,-100.00,SE,138,10.0,14.0,64,0.00,,,0.00,,2013-01-19 15:53:00,
2013-01-19 11:03:00,36.0,23.0,-100.00,SE,140,9.0,12.0,58,0.00,,,0.00,,2013-01-19 16:03:00,
2013-01-19 11:13:00,36.0,23.0,-100.00,SE,140,9.0,12.0,58,0.00,,,0.00,,2013-01-19 16:13:00,
2013-01-19 11:23:00,38.0,23.0,-100.00,SE,144,9.0,13.0,55,0.00,,,0.00,,2013-01-19 16:23:00,
2013-01-19 11:33:00,38.0,23.0,-100.00,SE,144,9.0,13.0,55,0.00,,,0.00,,2013-01-19 16:33:00,
2013-01-19 11:43:00,39.0,24.0,-100.00,SE,137,8.0,11.0,55,0.00,,,0.00,,2013-01-19 16:43:00,
2013-01-19 11:54:00,39.0,24.0,-100.00,SE,137,8.0,11.0,55,0.00,,,0.00,,2013-01-19 16:54:00,
2013-01-19 12:03:00,42.0,25.0,-100.00,SE,138,6.0,10.0,52,0.00,,,0.00,,2013-01-19 17:03:00,
2013-01-19 12:21:00,42.0,25.0,-100.00,SE,138,6.0,10.0,52,0.00,,,0.00,,2013-01-19 17:21:00,
2013-01-19 12:29:00,42.0,24.0,-100.00,SSE,148,6.0,9.0,47,0.00,,,0.00,,2013-01-19 17:29:00,
2013-01-19 12:37:00,42.0,24.0,-100.00,SSE,148,6.0,9.0,47,0.00,,,0.00,,2013-01-19 17:37:00,
2013-01-19 12:49:00,45.0,25.0,-100.00,SSE,157,5.0,9.0,44,0.00,,,0.00,,2013-01-19 17:49:00,
2013-01-19 12:55:00,45.0,25.0,-100.00,SSE,157,5.0,9.0,44,0.00,,,0.00,,2013-01-19 17:55:00,
2013-01-19 13:13:00,47.0,24.0,-100.00,SSE,155,6.0,9.0,40,0.00,,,0.00,,2013-01-19 18:13:00,
2013-01-19 13:37:00,49.0,24.0,-100.00,SSE,151,4.0,7.0,36,0.00,,,0.00,,2013-01-19 18:37:00,
2013-01-19 13:46:00,50.0,24.0,-100.00,SSE,150,5.0,8.0,36,0.00,,,0.00,,2013-01-19 18:46:00,
2013-01-19 14:04:00,50.0,24.0,-100.00,SSE,150,5.0,8.0,36,0.00,,,0.00,,2013-01-19 19:04:00,
2013-01-19 14:10:00,52.0,24.0,-100.00,SSE,152,6.0,9.0,34,0.00,,,0.00,,2013-01-19 19:10:00,
2013-01-19 14:31:00,53.0,24.0,-100.00,SSE,150,7.0,11.0,32,0.00,,,0.00,,2013-01-19 19:31:00,
2013-01-19 14:40:00,53.0,24.0,-100.00,SSE,150,7.0,11.0,32,0.00,,,0.00,,2013-01-19 19:40:00,
2013-01-19 14:48:00,54.0,24.0,-100.00,SSE,154,9.0,13.0,31,0.00,,,0.00,,2013-01-19 19:48:00,
2013-01-19 15:20:00,55.0,24.0,-100.00,SSE,147,9.0,13.0,29,0.00,,,0.00,,2013-01-19 20:20:00,
2013-01-19 15:27:00,54.0,24.0,-100.00,SSE,157,9.0,12.0,31,0.00,,,0.00,,2013-01-19 20:27:00,
2013-01-19 15:39:00,54.0,24.0,-100.00,SSE,157,9.0,12.0,31,0.00,,,0.00,,2013-01-19 20:39:00,
2013-01-19 15:49:00,55.0,25.0,-100.00,SSE,152,9.0,13.0,31,0.00,,,0.00,,2013-01-19 20:49:00,
2013-01-19 15:59:00,55.0,25.0,-100.00,SSE,152,9.0,13.0,31,0.00,,,0.00,,2013-01-19 20:59:00,
2013-01-19 16:15:00,55.0,26.0,-100.00,SSE,147,10.0,14.0,32,0.00,,,0.00,,2013-01-19 21:15:00,
2013-01-19 16:29:00,53.0,25.0,-100.00,SSE,150,11.0,17.0,33,0.00,,,0.00,,2013-01-19 21:29:00,
2013-01-19 16:46:00,53.0,25.0,-100.00,SSE,150,11.0,17.0,33,0.00,,,0.00,,2013-01-19 21:46:00,
2013-01-19 16:52:00,52.0,26.0,-100.00,SSE,148,12.0,16.0,36,0.00,,,0.00,,2013-01-19 21:52:00,
2013-01-19 16:57:00,52.0,26.0,-100.00,SSE,148,12.0,16.0,36,0.00,,,0.00,,2013-01-19 21:57:00,
2013-01-19 17:15:00,50.0,27.0,-100.00,SSE,147,13.0,17.0,40,0.00,,,0.00,,2013-01-19 22:15:00,
2013-01-19 17:28:00,49.0,27.0,-100.00,SE,143,13.0,17.0,42,0.00,,,0.00,,2013-01-19 22:28:00,
2013-01-19 17:35:00,49.0,27.0,-100.00,SE,143,13.0,17.0,42,0.00,,,0.00,,2013-01-19 22:35:00,
2013-01-19 17:48:00,49.0,29.0,-100.00,SE,143,10.0,14.0,45,0.00,,,0.00,,2013-01-19 22:48:00,
2013-01-19 17:59:00,49.0,29.0,-100.00,SE,143,10.0,14.0,45,0.00,,,0.00,,2013-01-19 22:59:00,
2013-01-19 18:14:00,47.0,27.0,-100.00,SE,137,10.0,13.0,45,0.00,,,0.00,,2013-01-19 23:14:00,
2013-01-19 18:28:00,46.0,27.0,-100.00,SE,138,10.0,15.0,48,0.00,,,0.00,,2013-01-19 23:28:00,
2013-01-19 18:35:00,46.0,27.0,-100.00,SE,138,10.0,15.0,48,0.00,,,0.00,,2013-01-19 23:35:00,
2013-01-19 18:47:00,44.0,28.0,-100.00,SE,140,7.0,10.0,52,0.00,,,0.00,,2013-01-19 23:47:00,
2013-01-19 19:08:00,44.0,28.0,-100.00,SE,140,7.0,10.0,52,0.00,,,0.00,,2013-01-20 00:08:00,
2013-01-19 19:37:00,42.0,28.0,-100.00,SE,134,7.0,13.0,56,0.00,,,0.00,,2013-01-20 00:37:00,
2013-01-19 19:47:00,44.0,28.0,-100.00,SE,140,8.0,11.0,53,0.00,,,0.00,,2013-01-20 00:47:00,
2013-01-19 19:58:00,44.0,28.0,-100.00,SE,140,8.0,11.0,53,0.00,,,0.00,,2013-01-20 00:58:00,
2013-01-19 20:04:00,43.0,28.0,-100.00,SE,134,8.0,11.0,54,0.00,,,0.00,,2013-01-20 01:04:00,
2013-01-19 20:22:00,43.0,28.0,-100.00,SE,134,8.0,11.0,54,0.00,,,0.00,,2013-01-20 01:22:00,
2013-01-19 20:28:00,42.0,28.0,-100.00,SE,134,8.0,12.0,56,0.00,,,0.00,,2013-01-20 01:28:00,
2013-01-19 20:38:00,42.0,28.0,-100.00,SE,134,8.0,12.0,56,0.00,,,0.00,,2013-01-20 01:38:00,
2013-01-19 20:49:00,42.0,28.0,-100.00,SE,133,7.0,10.0,56,0.00,,,0.00,,2013-01-20 01:49:00,
2013-01-19 21:05:00,42.0,28.0,-100.00,SE,133,7.0,10.0,56,0.00,,,0.00,,2013-01-20 02:05:00,
2013-01-19 21:15:00,42.0,28.0,-100.00,ESE,120,8.0,11.0,56,0.00,,,0.00,,2013-01-20 02:15:00,
2013-01-19 21:27:00,41.0,28.0,-100.00,SE,124,5.0,8.0,59,0.00,,,0.00,,2013-01-20 02:27:00,
2013-01-19 21:45:00,39.0,28.0,-100.00,SSE,148,5.0,6.0,64,0.00,,,0.00,,2013-01-20 02:45:00,
2013-01-19 21:59:00,39.0,28.0,-100.00,SSE,148,5.0,6.0,64,0.00,,,0.00,,2013-01-20 02:59:00,
2013-01-19 22:09:00,39.0,28.0,-100.00,SE,140,4.0,6.0,63,0.00,,,0.00,,2013-01-20 03:09:00,
2013-01-19 22:15:00,39.0,28.0,-100.00,SE,140,4.0,6.0,63,0.00,,,0.00,,2013-01-20 03:15:00,
2013-01-19 22:39:00,38.0,28.0,-100.00,SE,143,4.0,6.0,66,0.00,,,0.00,,2013-01-20 03:39:00,
2013-01-19 22:58:00,38.0,27.0,-100.00,SSE,147,6.0,8.0,66,0.00,,,0.00,,2013-01-20 03:58:00,
2013-01-19 23:05:00,37.0,27.0,-100.00,SSE,151,6.0,11.0,69,0.00,,,0.00,,2013-01-20 04:05:00,
2013-01-19 23:15:00,37.0,27.0,-100.00,SSE,151,6.0,11.0,69,0.00,,,0.00,,2013-01-20 04:15:00,
2013-01-19 23:28:00,37.0,27.0,-100.00,SSE,151,6.0,11.0,68,0.00,,,0.00,,2013-01-20 04:28:00,
2013-01-19 23:38:00,37.0,27.0,-100.00,SSE,151,6.0,11.0,68,0.00,,,0.00,,2013-01-20 04:38:00,
2013-01-19 23:45:00,37.0,27.0,-100.00,SSE,148,5.0,7.0,67,0.00,,,0.00,,2013-01-20 04:45:00,
2013-01-19 23:59:00,37.0,27.0,-100.00,SSE,148,5.0,7.0,67,0.00,,,0.00,,2013-01-20 04:59:00,